Terminal Aerodrome Forecast
Issued by NWS

Home | Current Version | Previous Version | Text Only | Print | Product List | Glossary On
Versions: 1 2 3 4 5 6 7 8 9 10 11 12 13 14 15 16 17 18
000
FTUS41 KBGM 202339
TAFITH
TAF
KITH 202339Z 2100/2124 16012KT P6SM -SHRA SCT020 OVC035
      TEMPO 2101/2103 3SM TSRA BR OVC020CB
     FM210300 VRB05KT 5SM BR OVC012
     FM210700 27007KT P6SM OVC020
     FM211400 25008G16KT P6SM BKN040=

USA.gov is the U.S. government's official web portal to all federal, state and local government web resources and services.